sensor_id;sensor_type;location;lat;lon;timestamp;pressure;altitude;pressure_sealevel;temperature;humidity
63347;BME280;49472;49.880;8.650;2023-04-28T00:00:15;51609.59;;;-142.94;nan
63347;BME280;49472;49.880;8.650;2023-04-28T00:02:41;51562.97;;;-142.94;nan
63347;BME280;49472;49.880;8.650;2023-04-28T00:05:07;51574.63;;;-142.94;nan
63347;BME280;49472;49.880;8.650;2023-04-28T00:07:32;51586.28;;;-142.94;nan
63347;BME280;49472;49.880;8.650;2023-04-28T00:09:57;51588.22;;;-142.94;nan
63347;BME280;49472;49.880;8.650;2023-04-28T00:12:22;51597.94;;;-142.94;nan
63347;BME280;49472;49.880;8.650;2023-04-28T00:14:48;51442.47;;;-142.94;nan
63347;BME280;49472;49.880;8.650;2023-04-28T00:17:13;51432.78;;;-142.94;nan
63347;BME280;49472;49.880;8.650;2023-04-28T00:19:38;51512.44;;;-142.94;nan
63347;BME280;49472;49.880;8.650;2023-04-28T00:22:04;51436.66;;;-142.94;nan
63347;BME280;49472;49.880;8.650;2023-04-28T00:24:30;51477.47;;;-142.94;nan
63347;BME280;49472;49.880;8.650;2023-04-28T00:26:56;51413.34;;;-142.94;nan
63347;BME280;49472;49.880;8.650;2023-04-28T00:29:22;51283.13;;;-142.94;nan
63347;BME280;49472;49.880;8.650;2023-04-28T00:31:47;51121.84;;;-142.94;nan
63347;BME280;49472;49.880;8.650;2023-04-28T00:34:13;51059.69;;;-142.94;nan
63347;BME280;49472;49.880;8.650;2023-04-28T00:36:39;50935.31;;;-142.94;nan
63347;BME280;49472;49.880;8.650;2023-04-28T00:39:04;50117.44;;;-142.94;nan
63347;BME280;49472;49.880;8.650;2023-04-28T00:41:30;50589.50;;;-142.94;nan
63347;BME280;49472;49.880;8.650;2023-04-28T00:43:55;50105.78;;;-142.94;nan
63347;BME280;49472;49.880;8.650;2023-04-28T00:46:26;50301.97;;;-142.94;nan
63347;BME280;49472;49.880;8.650;2023-04-28T00:48:53;50678.88;;;-142.94;nan
63347;BME280;49472;49.880;8.650;2023-04-28T00:51:19;47243.72;;;-142.94;nan
63347;BME280;49472;49.880;8.650;2023-04-28T00:53:45;49053.09;;;-142.94;nan
63347;BME280;49472;49.880;8.650;2023-04-28T00:56:10;50152.41;;;-142.94;nan
63347;BME280;49472;49.880;8.650;2023-04-28T00:58:37;50614.75;;;-142.94;nan
63347;BME280;49472;49.880;8.650;2023-04-28T01:01:06;50472.94;;;-142.94;nan
63347;BME280;49472;49.880;8.650;2023-04-28T01:03:39;50222.31;;;-142.94;nan
63347;BME280;49472;49.880;8.650;2023-04-28T01:06:08;49676.50;;;-142.94;nan
63347;BME280;49472;49.880;8.650;2023-04-28T01:08:34;48662.81;;;-142.94;nan
63347;BME280;49472;49.880;8.650;2023-04-28T01:11:01;49414.31;;;-142.94;nan
63347;BME280;49472;49.880;8.650;2023-04-28T01:13:27;47752.28;;;-142.94;nan
63347;BME280;49472;49.880;8.650;2023-04-28T01:15:54;45237.47;;;-142.94;nan
63347;BME280;49472;49.880;8.650;2023-04-28T01:18:19;43406.91;;;-142.94;nan
63347;BME280;49472;49.880;8.650;2023-04-28T01:20:45;39466.00;;;-142.94;nan
63347;BME280;49472;49.880;8.650;2023-04-28T01:23:14;42722.63;;;-142.94;nan
63347;BME280;49472;49.880;8.650;2023-04-28T01:25:41;42410.56;;;-142.94;nan
63347;BME280;49472;49.880;8.650;2023-04-28T01:28:07;46025.09;;;-142.94;nan
63347;BME280;49472;49.880;8.650;2023-04-28T01:30:33;46913.81;;;-142.94;nan
63347;BME280;49472;49.880;8.650;2023-04-28T01:33:00;47076.81;;;-142.94;nan
63347;BME280;49472;49.880;8.650;2023-04-28T01:35:25;48950.19;;;-142.94;nan
63347;BME280;49472;49.880;8.650;2023-04-28T01:37:50;47752.28;;;-142.94;nan
63347;BME280;49472;49.880;8.650;2023-04-28T01:40:16;40321.97;;;-142.94;nan
63347;BME280;49472;49.880;8.650;2023-04-28T01:42:41;36938.03;;;-142.94;nan
63347;BME280;49472;49.880;8.650;2023-04-28T01:45:07;37625.00;;;-142.94;nan
63347;BME280;49472;49.880;8.650;2023-04-28T01:47:32;36893.53;;;-142.94;nan
63347;BME280;49472;49.880;8.650;2023-04-28T01:49:58;30423.69;;;-142.94;nan
63347;BME280;49472;49.880;8.650;2023-04-28T01:52:23;21290.25;;;-142.94;nan
63347;BME280;49472;49.880;8.650;2023-04-28T01:55:07;21783.28;;;-142.94;nan
63347;BME280;49472;49.880;8.650;2023-04-28T01:57:32;20550.78;;;-142.94;nan
63347;BME280;49472;49.880;8.650;2023-04-28T01:59:59;13657.19;;;-142.94;nan
63347;BME280;49472;49.880;8.650;2023-04-28T02:02:25;18579.72;;;-142.94;nan
63347;BME280;49472;49.880;8.650;2023-04-28T02:04:50;11198.66;;;-142.94;nan
63347;BME280;49472;49.880;8.650;2023-04-28T02:07:15;19811.50;;;-142.94;nan
63347;BME280;49472;49.880;8.650;2023-04-28T02:09:40;15625.31;;;-142.94;nan
63347;BME280;49472;49.880;8.650;2023-04-28T02:12:06;9478.75;;;-142.94;nan
63347;BME280;49472;49.880;8.650;2023-04-28T02:14:32;2853.34;;;-142.94;nan
63347;BME280;49472;49.880;8.650;2023-04-28T02:16:57;5305.66;;;-142.94;nan
63347;BME280;49472;49.880;8.650;2023-04-28T02:19:23;-4492.63;;;-142.94;nan
63347;BME280;49472;49.880;8.650;2023-04-28T02:21:48;2363.09;;;-142.94;nan
63347;BME280;49472;49.880;8.650;2023-04-28T02:24:14;3343.66;;;-142.94;nan
63347;BME280;49472;49.880;8.650;2023-04-28T02:26:39;-87.03;;;-142.94;nan
63347;BME280;49472;49.880;8.650;2023-04-28T02:29:05;-4492.63;;;-142.94;nan
63347;BME280;49472;49.880;8.650;2023-04-28T02:31:30;-87.03;;;-142.94;nan
63347;BME280;49472;49.880;8.650;2023-04-28T02:33:56;4815.03;;;-142.94;nan
63347;BME280;49472;49.880;8.650;2023-04-28T02:36:21;2608.22;;;-142.94;nan
63347;BME280;49472;49.880;8.650;2023-04-28T02:38:46;-1801.00;;;-142.94;nan
63347;BME280;49472;49.880;8.650;2023-04-28T02:41:12;-8159.41;;;-142.94;nan
63347;BME280;49472;49.880;8.650;2023-04-28T02:43:39;-6204.28;;;-142.94;nan
63347;BME280;49472;49.880;8.650;2023-04-28T02:46:05;-5959.81;;;-142.94;nan
63347;BME280;49472;49.880;8.650;2023-04-28T02:48:31;-9380.75;;;-142.94;nan
63347;BME280;49472;49.880;8.650;2023-04-28T02:50:59;-13531.38;;;-142.94;nan
63347;BME280;49472;49.880;8.650;2023-04-28T02:53:25;-13531.38;;;-142.94;nan
63347;BME280;49472;49.880;8.650;2023-04-28T02:55:50;-13531.38;;;-142.94;nan
63347;BME280;49472;49.880;8.650;2023-04-28T02:58:15;-13531.38;;;-142.94;nan
63347;BME280;49472;49.880;8.650;2023-04-28T03:00:42;-13531.38;;;-142.94;nan
63347;BME280;49472;49.880;8.650;2023-04-28T03:03:07;-13531.38;;;-142.94;nan
63347;BME280;49472;49.880;8.650;2023-04-28T03:05:32;-13531.38;;;-142.94;nan
63347;BME280;49472;49.880;8.650;2023-04-28T03:07:58;-13531.38;;;-142.94;nan
63347;BME280;49472;49.880;8.650;2023-04-28T03:10:23;-13531.38;;;-142.94;nan
63347;BME280;49472;49.880;8.650;2023-04-28T03:12:49;-13531.38;;;-142.94;nan
63347;BME280;49472;49.880;8.650;2023-04-28T03:15:14;-13531.38;;;-142.94;nan
63347;BME280;49472;49.880;8.650;2023-04-28T03:17:39;-13531.38;;;-142.94;nan
63347;BME280;49472;49.880;8.650;2023-04-28T03:20:07;-13531.38;;;-142.94;nan
63347;BME280;49472;49.880;8.650;2023-04-28T03:22:32;-13531.38;;;-142.94;nan
63347;BME280;49472;49.880;8.650;2023-04-28T03:24:58;-13531.38;;;-142.94;nan
63347;BME280;49472;49.880;8.650;2023-04-28T03:27:24;-13531.38;;;-142.94;nan
63347;BME280;49472;49.880;8.650;2023-04-28T03:29:49;-13531.38;;;-142.94;nan
63347;BME280;49472;49.880;8.650;2023-04-28T03:32:14;-13531.38;;;-142.94;nan
63347;BME280;49472;49.880;8.650;2023-04-28T03:34:40;-13531.38;;;-142.94;nan
63347;BME280;49472;49.880;8.650;2023-04-28T03:37:05;-13531.38;;;-142.94;nan
63347;BME280;49472;49.880;8.650;2023-04-28T03:39:31;-13531.38;;;-142.94;nan
63347;BME280;49472;49.880;8.650;2023-04-28T03:41:56;-13531.38;;;-142.94;nan
63347;BME280;49472;49.880;8.650;2023-04-28T03:44:22;-13531.38;;;-142.94;nan
63347;BME280;49472;49.880;8.650;2023-04-28T03:46:48;-13531.38;;;-142.94;nan
63347;BME280;49472;49.880;8.650;2023-04-28T03:49:13;-13531.38;;;-142.94;nan
63347;BME280;49472;49.880;8.650;2023-04-28T03:51:38;-13531.38;;;-142.94;nan
63347;BME280;49472;49.880;8.650;2023-04-28T03:54:03;-13531.38;;;-142.94;nan
63347;BME280;49472;49.880;8.650;2023-04-28T03:56:29;-13531.38;;;-142.94;nan
63347;BME280;49472;49.880;8.650;2023-04-28T03:58:54;-13531.38;;;-142.94;nan
63347;BME280;49472;49.880;8.650;2023-04-28T04:01:19;-13531.38;;;-142.94;nan
63347;BME280;49472;49.880;8.650;2023-04-28T04:03:45;-13531.38;;;-142.94;nan
63347;BME280;49472;49.880;8.650;2023-04-28T04:06:10;-13531.38;;;-142.94;nan
63347;BME280;49472;49.880;8.650;2023-04-28T04:08:35;-13531.38;;;-142.94;nan
63347;BME280;49472;49.880;8.650;2023-04-28T04:11:01;-13531.38;;;-142.94;nan
63347;BME280;49472;49.880;8.650;2023-04-28T04:13:27;-13531.38;;;-142.94;nan
63347;BME280;49472;49.880;8.650;2023-04-28T04:15:52;-13531.38;;;-142.94;nan
63347;BME280;49472;49.880;8.650;2023-04-28T04:18:18;-13531.38;;;-142.94;nan
63347;BME280;49472;49.880;8.650;2023-04-28T04:20:43;-13531.38;;;-142.94;nan
63347;BME280;49472;49.880;8.650;2023-04-28T04:23:08;-13531.38;;;-142.94;nan
63347;BME280;49472;49.880;8.650;2023-04-28T04:25:34;-13531.38;;;-142.94;nan
63347;BME280;49472;49.880;8.650;2023-04-28T04:28:00;-13531.38;;;-142.94;nan
63347;BME280;49472;49.880;8.650;2023-04-28T04:30:25;-13531.38;;;-142.94;nan
63347;BME280;49472;49.880;8.650;2023-04-28T04:32:50;-13531.38;;;-142.94;nan
63347;BME280;49472;49.880;8.650;2023-04-28T04:35:16;-13531.38;;;-142.94;nan
63347;BME280;49472;49.880;8.650;2023-04-28T04:37:41;-13531.38;;;-142.94;nan
63347;BME280;49472;49.880;8.650;2023-04-28T04:40:07;-13531.38;;;-142.94;nan
63347;BME280;49472;49.880;8.650;2023-04-28T04:42:33;-13531.38;;;-142.94;nan
63347;BME280;49472;49.880;8.650;2023-04-28T04:44:58;-13531.38;;;-142.94;nan
63347;BME280;49472;49.880;8.650;2023-04-28T04:47:23;-13531.38;;;-142.94;nan
63347;BME280;49472;49.880;8.650;2023-04-28T04:49:49;-13531.38;;;-142.94;nan
63347;BME280;49472;49.880;8.650;2023-04-28T04:52:15;-13531.38;;;-142.94;nan
63347;BME280;49472;49.880;8.650;2023-04-28T04:54:40;-13531.38;;;-142.94;nan
63347;BME280;49472;49.880;8.650;2023-04-28T04:57:06;-13531.38;;;-142.94;nan
63347;BME280;49472;49.880;8.650;2023-04-28T04:59:31;-13531.38;;;-142.94;nan
63347;BME280;49472;49.880;8.650;2023-04-28T05:01:57;-13531.38;;;-142.94;nan
63347;BME280;49472;49.880;8.650;2023-04-28T05:04:22;-13531.38;;;-142.94;nan
63347;BME280;49472;49.880;8.650;2023-04-28T05:06:47;-13531.38;;;-142.94;nan
63347;BME280;49472;49.880;8.650;2023-04-28T05:09:13;-13531.38;;;-142.94;nan
63347;BME280;49472;49.880;8.650;2023-04-28T05:11:38;-13531.38;;;-142.94;nan
63347;BME280;49472;49.880;8.650;2023-04-28T05:14:03;-13531.38;;;-142.94;nan
63347;BME280;49472;49.880;8.650;2023-04-28T05:16:28;-13531.38;;;-142.94;nan
63347;BME280;49472;49.880;8.650;2023-04-28T05:18:54;-13531.38;;;-142.94;nan
63347;BME280;49472;49.880;8.650;2023-04-28T05:21:19;-13531.38;;;-142.94;nan
63347;BME280;49472;49.880;8.650;2023-04-28T05:23:45;-13531.38;;;-142.94;nan
63347;BME280;49472;49.880;8.650;2023-04-28T05:26:10;-13531.38;;;-142.94;nan
63347;BME280;49472;49.880;8.650;2023-04-28T05:28:36;-13531.38;;;-142.94;nan
63347;BME280;49472;49.880;8.650;2023-04-28T05:31:01;-13531.38;;;-142.94;nan
63347;BME280;49472;49.880;8.650;2023-04-28T05:33:26;-13531.38;;;-142.94;nan
63347;BME280;49472;49.880;8.650;2023-04-28T05:35:52;-13531.38;;;-142.94;nan
63347;BME280;49472;49.880;8.650;2023-04-28T05:38:17;-13531.38;;;-142.94;nan
63347;BME280;49472;49.880;8.650;2023-04-28T05:40:42;-13531.38;;;-142.94;nan
63347;BME280;49472;49.880;8.650;2023-04-28T05:43:07;-13531.38;;;-142.94;nan
63347;BME280;49472;49.880;8.650;2023-04-28T05:45:33;-13531.38;;;-142.94;nan
63347;BME280;49472;49.880;8.650;2023-04-28T05:47:59;-13531.38;;;-142.94;nan
63347;BME280;49472;49.880;8.650;2023-04-28T05:50:24;-13531.38;;;-142.94;nan
63347;BME280;49472;49.880;8.650;2023-04-28T05:52:52;-13531.38;;;-142.94;nan
63347;BME280;49472;49.880;8.650;2023-04-28T05:55:17;-13531.38;;;-142.94;nan
63347;BME280;49472;49.880;8.650;2023-04-28T05:57:43;-13531.38;;;-142.94;nan
63347;BME280;49472;49.880;8.650;2023-04-28T06:00:08;-13531.38;;;-142.94;nan
63347;BME280;49472;49.880;8.650;2023-04-28T06:02:34;-13531.38;;;-142.94;nan
63347;BME280;49472;49.880;8.650;2023-04-28T06:05:00;-13531.38;;;-142.94;nan
63347;BME280;49472;49.880;8.650;2023-04-28T06:07:25;-13531.38;;;-142.94;nan
63347;BME280;49472;49.880;8.650;2023-04-28T06:09:50;-13531.38;;;-142.94;nan
63347;BME280;49472;49.880;8.650;2023-04-28T06:12:15;-13531.38;;;-142.94;nan
63347;BME280;49472;49.880;8.650;2023-04-28T06:14:41;-13531.38;;;-142.94;nan
63347;BME280;49472;49.880;8.650;2023-04-28T06:17:07;-13531.38;;;-142.94;nan
63347;BME280;49472;49.880;8.650;2023-04-28T06:19:32;-13531.38;;;-142.94;nan
63347;BME280;49472;49.880;8.650;2023-04-28T06:21:58;-13531.38;;;-142.94;nan
63347;BME280;49472;49.880;8.650;2023-04-28T06:24:23;-13531.38;;;-142.94;nan
63347;BME280;49472;49.880;8.650;2023-04-28T06:26:48;-13531.38;;;-142.94;nan
63347;BME280;49472;49.880;8.650;2023-04-28T06:29:14;-13531.38;;;-142.94;nan
63347;BME280;49472;49.880;8.650;2023-04-28T06:31:39;-13531.38;;;-142.94;nan
63347;BME280;49472;49.880;8.650;2023-04-28T06:34:04;-13531.38;;;-142.94;nan
63347;BME280;49472;49.880;8.650;2023-04-28T06:36:30;-13531.38;;;-142.94;nan
63347;BME280;49472;49.880;8.650;2023-04-28T06:38:56;-13531.38;;;-142.94;nan
63347;BME280;49472;49.880;8.650;2023-04-28T06:41:21;-13531.38;;;-142.94;nan
63347;BME280;49472;49.880;8.650;2023-04-28T06:43:46;-13531.38;;;-142.94;nan
63347;BME280;49472;49.880;8.650;2023-04-28T06:46:12;-13531.38;;;-142.94;nan
63347;BME280;49472;49.880;8.650;2023-04-28T06:48:37;-13531.38;;;-142.94;nan
63347;BME280;49472;49.880;8.650;2023-04-28T06:51:03;-13531.38;;;-142.94;nan
63347;BME280;49472;49.880;8.650;2023-04-28T06:53:29;-13531.38;;;-142.94;nan
63347;BME280;49472;49.880;8.650;2023-04-28T06:55:54;-13531.38;;;-142.94;nan
63347;BME280;49472;49.880;8.650;2023-04-28T06:58:20;-13531.38;;;-142.94;nan
63347;BME280;49472;49.880;8.650;2023-04-28T07:00:45;-13531.38;;;-142.94;nan
63347;BME280;49472;49.880;8.650;2023-04-28T07:03:11;-13531.38;;;-142.94;nan
63347;BME280;49472;49.880;8.650;2023-04-28T07:05:36;-13531.38;;;-142.94;nan
63347;BME280;49472;49.880;8.650;2023-04-28T07:08:02;-13531.38;;;-142.94;nan
63347;BME280;49472;49.880;8.650;2023-04-28T07:10:27;-13531.38;;;-142.94;nan
63347;BME280;49472;49.880;8.650;2023-04-28T07:12:53;-13531.38;;;-142.94;nan
63347;BME280;49472;49.880;8.650;2023-04-28T07:15:18;-13531.38;;;-142.94;nan
63347;BME280;49472;49.880;8.650;2023-04-28T07:17:43;-13531.38;;;-142.94;nan
63347;BME280;49472;49.880;8.650;2023-04-28T07:20:09;-13531.38;;;-142.94;nan
63347;BME280;49472;49.880;8.650;2023-04-28T07:22:34;-13531.38;;;-142.94;nan
63347;BME280;49472;49.880;8.650;2023-04-28T07:25:00;-13531.38;;;-142.94;nan
63347;BME280;49472;49.880;8.650;2023-04-28T07:27:25;-13531.38;;;-142.94;nan
63347;BME280;49472;49.880;8.650;2023-04-28T07:29:50;-13531.38;;;-142.94;nan
63347;BME280;49472;49.880;8.650;2023-04-28T07:32:16;-13531.38;;;-142.94;nan
63347;BME280;49472;49.880;8.650;2023-04-28T07:34:41;-13531.38;;;-142.94;nan
63347;BME280;49472;49.880;8.650;2023-04-28T07:37:06;-13531.38;;;-142.94;nan
63347;BME280;49472;49.880;8.650;2023-04-28T07:39:33;-13531.38;;;-142.94;nan
63347;BME280;49472;49.880;8.650;2023-04-28T07:42:01;-13531.38;;;-142.94;nan
63347;BME280;49472;49.880;8.650;2023-04-28T07:44:27;-13531.38;;;-142.94;nan
63347;BME280;49472;49.880;8.650;2023-04-28T07:46:53;-13531.38;;;-142.94;nan
63347;BME280;49472;49.880;8.650;2023-04-28T07:49:18;-13531.38;;;-142.94;nan
63347;BME280;49472;49.880;8.650;2023-04-28T07:51:44;-13531.38;;;-142.94;nan
63347;BME280;49472;49.880;8.650;2023-04-28T07:54:09;-13531.38;;;-142.94;nan
63347;BME280;49472;49.880;8.650;2023-04-28T07:56:34;-13531.38;;;-142.94;nan
63347;BME280;49472;49.880;8.650;2023-04-28T07:59:00;-13531.38;;;-142.94;nan
63347;BME280;49472;49.880;8.650;2023-04-28T08:01:26;-13531.38;;;-142.94;nan
63347;BME280;49472;49.880;8.650;2023-04-28T08:03:53;-13531.38;;;-142.94;nan
63347;BME280;49472;49.880;8.650;2023-04-28T08:06:19;-13531.38;;;-142.94;nan
63347;BME280;49472;49.880;8.650;2023-04-28T08:08:44;-13531.38;;;-142.94;nan
63347;BME280;49472;49.880;8.650;2023-04-28T08:11:09;-13531.38;;;-142.94;nan
63347;BME280;49472;49.880;8.650;2023-04-28T08:13:35;-13531.38;;;-142.94;nan
63347;BME280;49472;49.880;8.650;2023-04-28T08:16:00;-13531.38;;;-142.94;nan
63347;BME280;49472;49.880;8.650;2023-04-28T08:18:27;-13531.38;;;-142.94;nan
63347;BME280;49472;49.880;8.650;2023-04-28T08:20:52;-13531.38;;;-142.94;nan
63347;BME280;49472;49.880;8.650;2023-04-28T08:23:18;-13531.38;;;-142.94;nan
63347;BME280;49472;49.880;8.650;2023-04-28T08:25:44;-13531.38;;;-142.94;nan
63347;BME280;49472;49.880;8.650;2023-04-28T08:28:11;-13531.38;;;-142.94;nan
63347;BME280;49472;49.880;8.650;2023-04-28T08:30:36;-13531.38;;;-142.94;nan
63347;BME280;49472;49.880;8.650;2023-04-28T08:33:03;-13531.38;;;-142.94;nan
63347;BME280;49472;49.880;8.650;2023-04-28T08:35:29;-13531.38;;;-142.94;nan
63347;BME280;49472;49.880;8.650;2023-04-28T08:37:55;-13531.38;;;-142.94;nan
63347;BME280;49472;49.880;8.650;2023-04-28T08:40:20;-13531.38;;;-142.94;nan
63347;BME280;49472;49.880;8.650;2023-04-28T08:42:46;-13531.38;;;-142.94;nan
63347;BME280;49472;49.880;8.650;2023-04-28T08:45:15;-13531.38;;;-142.94;nan
63347;BME280;49472;49.880;8.650;2023-04-28T08:47:41;-13531.38;;;-142.94;nan
63347;BME280;49472;49.880;8.650;2023-04-28T08:50:10;-13531.38;;;-142.94;nan
63347;BME280;49472;49.880;8.650;2023-04-28T08:52:37;-13531.38;;;-142.94;nan
63347;BME280;49472;49.880;8.650;2023-04-28T08:55:08;-13531.38;;;-142.94;nan
63347;BME280;49472;49.880;8.650;2023-04-28T08:57:58;-13531.38;;;-142.94;nan
63347;BME280;49472;49.880;8.650;2023-04-28T09:00:23;-13531.38;;;-142.94;nan
63347;BME280;49472;49.880;8.650;2023-04-28T09:02:49;-13531.38;;;-142.94;nan
63347;BME280;49472;49.880;8.650;2023-04-28T09:05:14;-13531.38;;;-142.94;nan
63347;BME280;49472;49.880;8.650;2023-04-28T09:07:40;-13531.38;;;-142.94;nan
63347;BME280;49472;49.880;8.650;2023-04-28T09:12:55;-13531.38;;;-142.94;nan
63347;BME280;49472;49.880;8.650;2023-04-28T09:17:51;-13531.38;;;-142.94;nan
63347;BME280;49472;49.880;8.650;2023-04-28T09:20:25;-13531.38;;;-142.94;nan
63347;BME280;49472;49.880;8.650;2023-04-28T09:22:52;-13531.38;;;-142.94;nan
63347;BME280;49472;49.880;8.650;2023-04-28T09:25:19;-13531.38;;;-142.94;nan
63347;BME280;49472;49.880;8.650;2023-04-28T09:27:50;-13531.38;;;-142.94;nan
63347;BME280;49472;49.880;8.650;2023-04-28T09:30:16;-13531.38;;;-142.94;nan
63347;BME280;49472;49.880;8.650;2023-04-28T09:32:44;-13531.38;;;-142.94;nan
63347;BME280;49472;49.880;8.650;2023-04-28T09:35:10;-13531.38;;;-142.94;nan
63347;BME280;49472;49.880;8.650;2023-04-28T09:37:35;-13531.38;;;-142.94;nan
63347;BME280;49472;49.880;8.650;2023-04-28T09:40:04;-13531.38;;;-142.94;nan
63347;BME280;49472;49.880;8.650;2023-04-28T09:42:38;-13531.38;;;-142.94;nan
63347;BME280;49472;49.880;8.650;2023-04-28T09:45:05;-13531.38;;;-142.94;nan
63347;BME280;49472;49.880;8.650;2023-04-28T09:47:32;-13531.38;;;-142.94;nan
63347;BME280;49472;49.880;8.650;2023-04-28T09:50:01;-13531.38;;;-142.94;nan
63347;BME280;49472;49.880;8.650;2023-04-28T09:52:27;-13531.38;;;-142.94;nan
63347;BME280;49472;49.880;8.650;2023-04-28T09:54:54;-13531.38;;;-142.94;nan
63347;BME280;49472;49.880;8.650;2023-04-28T09:57:21;-13531.38;;;-142.94;nan
63347;BME280;49472;49.880;8.650;2023-04-28T09:59:51;-13531.38;;;-142.94;nan
63347;BME280;49472;49.880;8.650;2023-04-28T10:02:18;-13531.38;;;-142.94;nan
63347;BME280;49472;49.880;8.650;2023-04-28T10:04:46;-13531.38;;;-142.94;nan
63347;BME280;49472;49.880;8.650;2023-04-28T10:07:13;-13531.38;;;-142.94;nan
63347;BME280;49472;49.880;8.650;2023-04-28T10:09:40;-13531.38;;;-142.94;nan
63347;BME280;49472;49.880;8.650;2023-04-28T10:12:13;-13531.38;;;-142.94;nan
63347;BME280;49472;49.880;8.650;2023-04-28T10:14:40;-13531.38;;;-142.94;nan
63347;BME280;49472;49.880;8.650;2023-04-28T10:17:06;-13531.38;;;-142.94;nan
63347;BME280;49472;49.880;8.650;2023-04-28T10:19:32;-13531.38;;;-142.94;nan
63347;BME280;49472;49.880;8.650;2023-04-28T10:24:58;-13531.38;;;-142.94;nan
63347;BME280;49472;49.880;8.650;2023-04-28T10:27:32;-13531.38;;;-142.94;nan
63347;BME280;49472;49.880;8.650;2023-04-28T10:30:20;-13531.38;;;-142.94;nan
63347;BME280;49472;49.880;8.650;2023-04-28T10:32:46;-13531.38;;;-142.94;nan
63347;BME280;49472;49.880;8.650;2023-04-28T10:38:05;-13531.38;;;-142.94;nan
63347;BME280;49472;49.880;8.650;2023-04-28T10:42:55;-13531.38;;;-142.94;nan
63347;BME280;49472;49.880;8.650;2023-04-28T10:56:08;-13531.38;;;-142.94;nan
63347;BME280;49472;49.880;8.650;2023-04-28T10:58:34;-13531.38;;;-142.94;nan
63347;BME280;49472;49.880;8.650;2023-04-28T11:06:25;-13531.38;;;-142.94;nan
63347;BME280;49472;49.880;8.650;2023-04-28T11:08:52;-13531.38;;;-142.94;nan
63347;BME280;49472;49.880;8.650;2023-04-28T11:11:21;-13531.38;;;-142.94;nan
63347;BME280;49472;49.880;8.650;2023-04-28T11:13:47;-13531.38;;;-142.94;nan
63347;BME280;49472;49.880;8.650;2023-04-28T11:16:14;-13531.38;;;-142.94;nan
63347;BME280;49472;49.880;8.650;2023-04-28T11:18:54;-13531.38;;;-142.94;nan
63347;BME280;49472;49.880;8.650;2023-04-28T11:21:22;-13531.38;;;-142.94;nan
63347;BME280;49472;49.880;8.650;2023-04-28T11:23:48;-13531.38;;;-142.94;nan
63347;BME280;49472;49.880;8.650;2023-04-28T11:26:18;-13531.38;;;-142.94;nan
63347;BME280;49472;49.880;8.650;2023-04-28T11:31:17;-13531.38;;;-142.94;nan
63347;BME280;49472;49.880;8.650;2023-04-28T11:33:45;-13531.38;;;-142.94;nan
63347;BME280;49472;49.880;8.650;2023-04-28T11:36:36;-13531.38;;;-142.94;nan
63347;BME280;49472;49.880;8.650;2023-04-28T11:39:05;-13531.38;;;-142.94;nan
63347;BME280;49472;49.880;8.650;2023-04-28T11:41:36;-13531.38;;;-142.94;nan
63347;BME280;49472;49.880;8.650;2023-04-28T11:44:18;-13531.38;;;-142.94;nan
63347;BME280;49472;49.880;8.650;2023-04-28T11:46:51;-13531.38;;;-142.94;nan
63347;BME280;49472;49.880;8.650;2023-04-28T11:49:23;-13531.38;;;-142.94;nan
63347;BME280;49472;49.880;8.650;2023-04-28T11:51:50;-13531.38;;;-142.94;nan
63347;BME280;49472;49.880;8.650;2023-04-28T11:54:27;-13531.38;;;-142.94;nan
63347;BME280;49472;49.880;8.650;2023-04-28T11:56:53;-13531.38;;;-142.94;nan
63347;BME280;49472;49.880;8.650;2023-04-28T11:59:26;-13531.38;;;-142.94;nan
63347;BME280;49472;49.880;8.650;2023-04-28T12:01:56;-13531.38;;;-142.94;nan
63347;BME280;49472;49.880;8.650;2023-04-28T12:09:34;-13531.38;;;-142.94;nan
63347;BME280;49472;49.880;8.650;2023-04-28T12:12:02;-13531.38;;;-142.94;nan
63347;BME280;49472;49.880;8.650;2023-04-28T12:14:29;-13531.38;;;-142.94;nan
63347;BME280;49472;49.880;8.650;2023-04-28T12:16:57;-13531.38;;;-142.94;nan
63347;BME280;49472;49.880;8.650;2023-04-28T12:19:22;-13531.38;;;-142.94;nan
63347;BME280;49472;49.880;8.650;2023-04-28T12:22:04;-13531.38;;;-142.94;nan
63347;BME280;49472;49.880;8.650;2023-04-28T12:24:30;-13531.38;;;-142.94;nan
63347;BME280;49472;49.880;8.650;2023-04-28T12:27:17;-13531.38;;;-142.94;nan
63347;BME280;49472;49.880;8.650;2023-04-28T12:29:50;-13531.38;;;-142.94;nan
63347;BME280;49472;49.880;8.650;2023-04-28T12:32:16;-13531.38;;;-142.94;nan
63347;BME280;49472;49.880;8.650;2023-04-28T12:34:44;-13531.38;;;-142.94;nan
63347;BME280;49472;49.880;8.650;2023-04-28T12:37:10;-13531.38;;;-142.94;nan
63347;BME280;49472;49.880;8.650;2023-04-28T12:39:38;-13531.38;;;-142.94;nan
63347;BME280;49472;49.880;8.650;2023-04-28T12:42:04;-13531.38;;;-142.94;nan
63347;BME280;49472;49.880;8.650;2023-04-28T12:44:34;-13531.38;;;-142.94;nan
63347;BME280;49472;49.880;8.650;2023-04-28T12:47:05;-13531.38;;;-142.94;nan
63347;BME280;49472;49.880;8.650;2023-04-28T12:49:31;-13531.38;;;-142.94;nan
63347;BME280;49472;49.880;8.650;2023-04-28T12:51:57;-13531.38;;;-142.94;nan
63347;BME280;49472;49.880;8.650;2023-04-28T12:54:22;-13531.38;;;-142.94;nan
63347;BME280;49472;49.880;8.650;2023-04-28T12:56:47;-13531.38;;;-142.94;nan
63347;BME280;49472;49.880;8.650;2023-04-28T12:59:13;-13531.38;;;-142.94;nan
63347;BME280;49472;49.880;8.650;2023-04-28T13:01:39;-13531.38;;;-142.94;nan
63347;BME280;49472;49.880;8.650;2023-04-28T13:04:04;-13531.38;;;-142.94;nan
63347;BME280;49472;49.880;8.650;2023-04-28T13:06:30;-13531.38;;;-142.94;nan
63347;BME280;49472;49.880;8.650;2023-04-28T13:08:56;-13531.38;;;-142.94;nan
63347;BME280;49472;49.880;8.650;2023-04-28T13:11:22;-13531.38;;;-142.94;nan
63347;BME280;49472;49.880;8.650;2023-04-28T13:13:51;-13531.38;;;-142.94;nan
63347;BME280;49472;49.880;8.650;2023-04-28T13:16:17;-13531.38;;;-142.94;nan
63347;BME280;49472;49.880;8.650;2023-04-28T13:18:42;-13531.38;;;-142.94;nan
63347;BME280;49472;49.880;8.650;2023-04-28T13:21:08;-13531.38;;;-142.94;nan
63347;BME280;49472;49.880;8.650;2023-04-28T13:23:33;-13531.38;;;-142.94;nan
63347;BME280;49472;49.880;8.650;2023-04-28T13:25:58;-13531.38;;;-142.94;nan